Terminal Aerodrome Forecast
Issued by NWS Birmingham, AL

Home | Current Version | Previous Version | Text Only | Print | Product List | Glossary On
Versions: 1 2 3 4 5 6 7 8 9 10 11 12 13 14 15 16
000
FTUS44 KBMX 021700
TAFBHM
TAF
KBHM 021729Z 0218/0318 19007KT P6SM SCT045
     FM030900 19006KT P6SM VCTS OVC020CB
     FM031000 19008KT 5SM SHRA BR VCTS OVC030CB
     FM031500 22012KT P6SM OVC025=

USA.gov is the U.S. government's official web portal to all federal, state and local government web resources and services.